• Join FlightAware (Why Join?)
  • Login
  • US Flag 
03:28AM EDT


 

Airport Tracker/Info


-or-


 

Live Flight TrackerFlight Track Log ✈ UAL4498 ✈ 28-Jul-2013 ✈ KPWM - KEWR

Flight Track Log - Related Links

Times and Time Zones

All times are in EDT time to prevent confusion due to time zone crossing. See the UAL4498 flight status page for this flight to view local times or setup timezone preferences in your user account.

Time Position Orientation Groundspeed Altitude Reporting Facility
EDT Latitude Longitude Course Direction KTS MPH feet Rate Location/Type
09:51AM 43.7583 -70.3272 289° West 279 321 5,600  Level Boston Center
09:52AM 43.7625 -70.4336 273° West 272 313 8,100 2,160 Climbing Boston Center
09:53AM 43.7517 -70.5317 261° West 268 308 10,000 1,680 Climbing Boston Center
09:54AM 43.7216 -70.7361 264° West  Level FlightAware Approximate
09:54AM 43.7408 -70.6383 262° West 281 323 11,500  Level Boston Center
09:55AM 43.7089 -70.8401 245° Southwest  Level FlightAware Approximate
09:55AM 43.7300 -70.7536 263° West 297 342 12,300  Level Boston Center
09:56AM 43.6967 -70.9008 253° West 319 367 13,300 840 Climbing Boston Center
09:57AM 43.6608 -71.0225 248° West 341 392 14,100 900 Climbing Boston Center
09:58AM 43.6372 -71.1433 255° West 358 412 15,200 1,140 Climbing Boston Center
09:59AM 43.6097 -71.2903 256° West 358 412 16,400 1,200 Climbing Boston Center
10:00AM 43.5858 -71.4225 256° West 358 412 17,600 900 Climbing Boston Center
10:01AM 43.5639 -71.5375 255° West 358 412 18,500 960 Climbing Boston Center
10:02AM 43.5381 -71.6925 257° West 358 412 19,800 1,200 Climbing Boston Center
10:03AM 43.5136 -71.8189 255° West 353 406 21,000 1,080 Climbing Boston Center
10:04AM 43.4892 -71.9478 255° West 353 406 22,100 1,140 Climbing Boston Center
10:05AM 43.4669 -72.0767 257° West 353 406 23,300 960 Climbing Boston Center
10:06AM 43.4422 -72.2056 255° West 353 406 24,000 300 Climbing Boston Center
10:07AM 43.4175 -72.3428 256° West 364 419 24,000  Level Boston Center
10:08AM 43.3883 -72.4831 254° West 375 432 24,000  Level Boston Center
10:09AM 43.3319 -72.6114 239° Southwest 380 437 24,000  Level Boston Center
10:10AM 43.2753 -72.7394 239° Southwest 390 449 24,000  Level Boston Center
10:11AM 43.2125 -72.8731 237° Southwest 403 464 24,000  Level Boston Center
10:12AM 43.1472 -73.0150 238° Southwest 416 479 24,000 -480 Level Boston Center
10:13AM 43.0922 -73.1394 239° Southwest 405 466 23,100 -1,500 Descending Boston Center
10:14AM 43.0372 -73.2581 238° Southwest 387 445 21,000 -2,040 Descending Boston Center
10:15AM 42.9781 -73.3708 234° Southwest 376 433 19,000 -1,860 Descending Boston Center
10:16AM 42.9208 -73.4806 235° Southwest 371 427 17,300 -1,560 Descending Boston Center
10:17AM 42.8636 -73.5872 234° Southwest 359 413 16,000 -720 Descending Boston Center
10:18AM 42.8083 -73.6908 234° Southwest 359 413 16,000  Level Boston Center
10:19AM 42.7486 -73.7972 233° Southwest 358 412 16,000 -60 Level Boston Center
10:20AM 42.6606 -73.8461 202° Southwest 337 388 15,900  Descending Boston Center
10:21AM 42.5689 -73.8439 179° South 332 382 16,000  Climbing Boston Center
10:22AM 42.4625 -73.8417 179° South 347 399 16,000  Level Boston Center
10:23AM 42.3750 -73.8397 179° South 352 405 16,000 -60 Level Boston Center
10:24AM 42.2625 -73.8372 179° South 358 412 15,900 -60 Descending Boston Center
10:25AM 42.1731 -73.8353 179° South 363 418 15,900  Level Boston Center
10:26AM 42.0647 -73.8328 179° South 363 418 15,900  Level Boston Center
10:27AM 41.9708 -73.8306 179° South 350 403 15,900 -900 Level Boston Center
10:28AM 41.8958 -73.8292 179° South 322 371 14,200 -1,860 Descending Boston Center
10:29AM 41.8042 -73.8269 179° South 303 349 12,200 -1,800 Descending Boston Center
10:30AM 41.7356 -73.8256 179° South 285 328 10,600 -1,800 Descending Boston Center
10:31AM 41.6603 -73.8350 185° South 267 307 8,700 -1,380 Descending Boston Center
10:32AM 41.6136 -73.8894 221° Southwest 245 282 7,900 -420 Descending Boston Center
10:33AM 41.5567 -73.9575 222° Southwest 250 288 7,900  Level Boston Center
10:34AM 41.5078 -74.0147 221° Southwest 255 293 7,900 -120 Level Boston Center
10:35AM 41.4547 -74.0769 221° Southwest 255 293 7,700 -480 Descending Boston Center
10:36AM 41.4081 -74.1367 224° Southwest 244 281 7,000 -240 Descending Boston Center
10:38AM 41.3000 -74.2500 218° Southwest 241 277 7,100  Climbing New York TRACON
10:39AM 41.2500 -74.3167 225° Southwest 248 285 7,100 -300 Level New York TRACON
10:40AM 41.1833 -74.3167 180° South 250 288 6,600 -780 Descending New York TRACON
10:41AM 41.1333 -74.3000 166° South 241 277 5,600 -840 Descending New York TRACON
10:42AM 41.0833 -74.2667 153° Southeast 213 245 5,100 -480 Descending New York TRACON
10:43AM 41.0333 -74.2333 153° Southeast 188 216 4,800 -540 Descending New York TRACON
10:44AM 40.9833 -74.1833 143° Southeast 188 216 4,100 -360 Descending New York TRACON
10:45AM 40.9500 -74.1500 143° Southeast 184 212 4,100 -480 Level New York TRACON
10:46AM 40.9000 -74.1000 143° Southeast 191 220 3,200 -540 Descending New York TRACON
10:47AM 40.8667 -74.0833 159° South 179 206 3,100 -300 Descending New York TRACON
10:48AM 40.8167 -74.0833 180° South 175 201 2,600 -660 Descending New York TRACON
10:49AM 40.7833 -74.1167 217° Southwest 174 200 1,800 -900 Descending New York TRACON
10:50AM 40.7333 -74.1333 194° South 148 170 1,000 -840 Descending New York TRACON